Time;durP1;ratioP1;P1;durP2;ratioP2;P2;SDS_P1;SDS_P2;PMS_P1;PMS_P2;Temp;Humidity;BMP_temperature;BMP_pressure;BME280_temperature;BME280_humidity;BME280_pressure;Samples;Min_cycle;Max_cycle;Signal;HPM_P1;HPM_P2
2022/05/30 00:00:21;;;;;;;;;6.00;2.50;;;;;11.17;100.00;100928.28;6283718;22;44846;-84
2022/05/30 00:02:47;;;;;;;;;3.75;3.75;;;;;11.16;100.00;100938.09;6286907;22;45093;-85
2022/05/30 00:05:15;;;;;;;;;4.00;2.75;;;;;11.13;100.00;100940.97;6260083;22;44800;-86
2022/05/30 00:07:40;;;;;;;;;5.00;4.00;;;;;11.03;100.00;100950.50;6260457;22;44782;-86
2022/05/30 00:10:08;;;;;;;;;2.50;1.00;;;;;10.94;100.00;100949.28;6283305;22;45253;-85
2022/05/30 00:12:34;;;;;;;;;2.25;2.25;;;;;10.90;100.00;100945.13;6279896;22;44947;-86
2022/05/30 00:15:01;;;;;;;;;4.00;3.00;;;;;10.95;100.00;100942.16;6283661;22;44676;-86
2022/05/30 00:17:27;;;;;;;;;3.00;3.00;;;;;10.92;100.00;100942.34;6281424;22;44704;-85
2022/05/30 00:19:52;;;;;;;;;4.25;2.75;;;;;10.85;100.00;100938.41;6279512;22;44691;-85
2022/05/30 00:22:18;;;;;;;;;4.00;3.50;;;;;10.86;100.00;100926.81;6248706;22;47070;-86
2022/05/30 00:24:44;;;;;;;;;4.50;4.50;;;;;10.86;100.00;100940.94;6276986;22;45223;-85
2022/05/30 00:27:10;;;;;;;;;4.25;2.25;;;;;10.84;100.00;100929.59;6252434;22;45159;-87
2022/05/30 00:29:37;;;;;;;;;9.25;7.50;;;;;10.82;100.00;100934.13;6291052;22;44856;-84
2022/05/30 00:32:03;;;;;;;;;3.50;3.50;;;;;10.82;100.00;100929.66;6288327;22;45382;-85
2022/05/30 00:34:29;;;;;;;;;4.00;4.00;;;;;10.77;100.00;100915.81;6279504;22;44777;-85
2022/05/30 00:36:54;;;;;;;;;4.75;4.25;;;;;10.77;100.00;100918.47;6276508;22;44961;-85
2022/05/30 00:39:20;;;;;;;;;4.25;3.25;;;;;10.77;100.00;100923.78;6249576;22;45506;-86
2022/05/30 00:41:46;;;;;;;;;4.00;4.00;;;;;10.75;100.00;100924.88;6278208;22;46045;-84
2022/05/30 00:44:12;;;;;;;;;3.00;3.00;;;;;10.73;100.00;100913.47;6282453;22;44746;-86
2022/05/30 00:46:37;;;;;;;;;2.25;2.25;;;;;10.74;100.00;100909.88;6279098;22;44705;-85
2022/05/30 00:49:06;;;;;;;;;4.00;4.00;;;;;10.71;100.00;100902.94;6250216;22;44816;-83
2022/05/30 00:51:50;;;;;;;;;4.00;4.00;;;;;10.70;100.00;100901.25;6278331;22;45036;-85
2022/05/30 00:54:20;;;;;;;;;4.50;4.25;;;;;10.68;100.00;100903.13;6279741;22;45137;-85
2022/05/30 00:56:51;;;;;;;;;3.25;3.00;;;;;10.66;100.00;100917.47;6253467;22;44725;-86
2022/05/30 00:59:17;;;;;;;;;6.25;5.00;;;;;10.65;100.00;100913.13;6285237;22;44787;-84
2022/05/30 01:01:42;;;;;;;;;4.25;4.00;;;;;10.68;100.00;100904.94;6279132;22;44993;-84
2022/05/30 01:06:56;;;;;;;;;2.25;2.25;;;;;10.65;100.00;100900.69;6280488;22;44736;-86
2022/05/30 01:09:26;;;;;;;;;5.75;5.75;;;;;10.63;100.00;100899.91;6278465;22;44824;-87
2022/05/30 01:11:58;;;;;;;;;9.25;6.75;;;;;10.64;100.00;100896.34;6280628;22;45381;-86
2022/05/30 01:14:28;;;;;;;;;3.25;3.25;;;;;10.60;100.00;100900.13;6284998;22;45187;-87
2022/05/30 01:16:55;;;;;;;;;6.25;4.75;;;;;10.60;100.00;100893.97;6287173;22;44748;-86
2022/05/30 01:19:29;;;;;;;;;6.75;6.75;;;;;10.61;100.00;100890.34;6257760;22;44742;-85
2022/05/30 01:22:00;;;;;;;;;10.50;8.00;;;;;10.56;100.00;100890.66;6285033;22;47090;-85
2022/05/30 01:24:44;;;;;;;;;8.00;8.00;;;;;10.56;100.00;100882.69;6255414;22;44725;-84
2022/05/30 01:27:39;;;;;;;;;7.75;7.75;;;;;10.55;100.00;100883.66;6280558;22;45163;-85
2022/05/30 01:30:12;;;;;;;;;6.00;6.00;;;;;10.52;100.00;100879.38;6261201;22;45261;-85
2022/05/30 01:32:38;;;;;;;;;7.00;7.00;;;;;10.53;100.00;100880.22;6254365;22;45201;-84
2022/05/30 01:35:04;;;;;;;;;6.50;6.50;;;;;10.53;100.00;100882.88;6276415;22;45174;-86
2022/05/30 01:37:29;;;;;;;;;8.00;5.00;;;;;10.51;100.00;100877.66;6248527;22;45339;-85
2022/05/30 01:39:55;;;;;;;;;7.00;7.00;;;;;10.49;100.00;100876.94;6275243;22;45620;-85
2022/05/30 01:42:21;;;;;;;;;7.75;6.75;;;;;10.51;100.00;100890.94;6274955;22;45520;-86
2022/05/30 01:44:46;;;;;;;;;8.00;8.00;;;;;10.48;100.00;100885.81;6278408;22;45227;-85
2022/05/30 01:47:12;;;;;;;;;6.25;5.25;;;;;10.45;100.00;100886.03;6276243;22;44733;-84
2022/05/30 01:49:37;;;;;;;;;7.00;5.75;;;;;10.41;100.00;100879.22;6282416;22;44872;-85
2022/05/30 01:52:03;;;;;;;;;6.00;6.00;;;;;10.43;100.00;100882.59;6280165;22;45043;-85
2022/05/30 01:54:28;;;;;;;;;7.75;7.75;;;;;10.40;100.00;100868.69;6281872;22;45343;-86
2022/05/30 01:56:55;;;;;;;;;9.00;7.75;;;;;10.42;100.00;100872.94;6284759;22;44801;-85
2022/05/30 01:59:20;;;;;;;;;7.75;7.75;;;;;10.43;100.00;100884.41;6257060;22;44781;-85
2022/05/30 02:01:47;;;;;;;;;8.75;8.75;;;;;10.42;100.00;100886.22;6281363;22;45415;-85
2022/05/30 02:04:15;;;;;;;;;7.50;7.00;;;;;10.40;100.00;100880.16;6286720;22;45113;-85
2022/05/30 02:06:41;;;;;;;;;6.75;5.50;;;;;10.40;100.00;100893.44;6258514;22;45267;-84
2022/05/30 02:09:07;;;;;;;;;9.75;9.00;;;;;10.39;100.00;100889.06;6283040;22;45270;-84
2022/05/30 02:11:33;;;;;;;;;6.25;5.00;;;;;10.38;100.00;100887.38;6282176;22;45391;-84
2022/05/30 02:13:59;;;;;;;;;7.50;7.00;;;;;10.37;100.00;100885.66;6282709;22;45253;-83
2022/05/30 02:19:11;;;;;;;;;6.50;6.50;;;;;10.28;100.00;100883.59;6283387;22;44734;-83
2022/05/30 02:21:37;;;;;;;;;4.75;4.75;;;;;10.24;100.00;100882.91;6282923;22;45657;-85
2022/05/30 02:24:04;;;;;;;;;6.00;5.00;;;;;10.23;100.00;100886.50;6279838;22;44801;-85
2022/05/30 02:26:30;;;;;;;;;5.75;5.00;;;;;10.22;100.00;100879.50;6262916;22;44857;-84
2022/05/30 02:28:56;;;;;;;;;6.00;6.00;;;;;10.18;100.00;100879.78;6285133;22;44918;-84
2022/05/30 02:31:22;;;;;;;;;5.50;4.50;;;;;10.20;100.00;100892.03;6284919;22;45053;-84
2022/05/30 02:36:40;;;;;;;;;7.50;7.50;;;;;10.10;100.00;100885.56;6279385;22;45151;-84
2022/05/30 02:39:12;;;;;;;;;3.00;3.00;;;;;10.08;100.00;100881.31;6281879;22;45287;-85
2022/05/30 02:41:38;;;;;;;;;6.00;6.00;;;;;10.08;100.00;100884.81;6280958;22;44958;-86
2022/05/30 02:44:04;;;;;;;;;1.00;1.00;;;;;10.03;100.00;100887.75;6277703;22;45266;-83
2022/05/30 02:46:30;;;;;;;;;5.25;5.00;;;;;10.00;100.00;100887.94;6280210;22;44811;-85
2022/05/30 02:48:56;;;;;;;;;6.00;4.50;;;;;9.99;100.00;100891.53;6280761;22;44839;-85
2022/05/30 02:51:21;;;;;;;;;5.50;5.50;;;;;9.98;100.00;100879.22;6255267;22;45195;-84
2022/05/30 02:53:47;;;;;;;;;7.50;4.75;;;;;10.02;100.00;100882.56;6289278;22;44749;-85
2022/05/30 02:56:15;;;;;;;;;8.00;8.00;;;;;9.95;100.00;100890.03;6292119;22;45317;-83
2022/05/30 02:58:40;;;;;;;;;12.50;10.75;;;;;9.91;100.00;100890.31;6284401;22;44733;-84
2022/05/30 03:01:07;;;;;;;;;6.75;6.25;;;;;9.88;100.00;100893.16;6281174;22;45104;-84
2022/05/30 03:03:33;;;;;;;;;10.00;9.33;;;;;9.83;100.00;100895.25;6280914;22;45161;-89
2022/05/30 03:05:58;;;;;;;;;9.25;8.00;;;;;9.82;100.00;100889.09;6258050;22;44576;-88
2022/05/30 03:08:24;;;;;;;;;11.00;9.25;;;;;9.78;100.00;100909.66;6263297;22;44631;-85
2022/05/30 03:10:51;;;;;;;;;9.00;9.00;;;;;9.78;100.00;100893.72;6294097;22;45160;-89
2022/05/30 03:13:17;;;;;;;;;8.00;8.00;;;;;9.78;100.00;100892.88;6247154;22;44746;-90
2022/05/30 03:15:42;;;;;;;;;13.00;9.75;;;;;9.77;100.00;100893.84;6276989;22;44638;-90
2022/05/30 03:18:09;;;;;;;;;13.00;10.00;;;;;9.75;100.00;100893.91;6301010;22;44777;-87
2022/05/30 03:20:35;;;;;;;;;13.00;9.75;;;;;9.74;100.00;100894.00;6292810;22;45308;-88
2022/05/30 03:23:01;;;;;;;;;13.25;11.25;;;;;9.72;100.00;100901.22;6293807;22;44825;-85
2022/05/30 03:25:28;;;;;;;;;11.75;11.75;;;;;9.65;100.00;100895.41;6293760;22;44621;-89
2022/05/30 03:27:58;;;;;;;;;10.25;8.75;;;;;9.67;100.00;100896.19;6293433;22;44754;-87
2022/05/30 03:30:26;;;;;;;;;8.00;8.00;;;;;9.66;100.00;100897.09;6274961;22;45034;-89
2022/05/30 03:32:52;;;;;;;;;16.25;13.00;;;;;9.69;100.00;100891.63;6275816;22;44605;-89
2022/05/30 03:38:40;;;;;;;;;11.25;9.50;;;;;9.67;100.00;100895.31;6305374;22;44634;-87
2022/05/30 03:41:12;;;;;;;;;9.75;8.00;;;;;9.66;100.00;100890.97;6303164;22;44976;-89
2022/05/30 03:43:39;;;;;;;;;9.50;8.50;;;;;9.59;100.00;100887.84;6302332;22;44705;-88
2022/05/30 03:46:05;;;;;;;;;11.00;9.75;;;;;9.60;100.00;100896.63;6303847;22;44803;-89
2022/05/30 03:48:30;;;;;;;;;11.50;9.75;;;;;9.59;100.00;100897.59;6304166;22;44768;-86
2022/05/30 03:50:56;;;;;;;;;10.25;8.50;;;;;9.58;100.00;100896.75;6278112;22;45233;-87
2022/05/30 03:53:21;;;;;;;;;8.50;7.00;;;;;9.57;100.00;100895.00;6276596;22;44670;-87
2022/05/30 03:55:47;;;;;;;;;14.75;14.75;;;;;9.52;100.00;100891.78;6277890;22;44727;-86
2022/05/30 03:58:14;;;;;;;;;8.25;7.50;;;;;9.51;100.00;100892.72;6301608;22;44756;-88
2022/05/30 04:00:42;;;;;;;;;7.75;7.75;;;;;9.52;100.00;100894.44;6274984;22;46308;-89
2022/05/30 04:03:08;;;;;;;;;9.00;9.00;;;;;9.52;100.00;100902.38;6274045;22;44759;-88
2022/05/30 04:05:34;;;;;;;;;11.00;8.75;;;;;9.52;100.00;100908.56;6301831;22;44716;-88
2022/05/30 04:08:00;;;;;;;;;11.00;9.00;;;;;9.54;100.00;100900.53;6269838;22;45015;-89
2022/05/30 04:10:26;;;;;;;;;8.50;8.50;;;;;9.62;100.00;100905.34;6294685;22;45587;-89
2022/05/30 04:13:00;;;;;;;;;11.00;7.50;;;;;9.69;100.00;100912.84;6290240;22;44764;-89
2022/05/30 04:15:26;;;;;;;;;11.00;8.25;;;;;9.72;100.00;100910.03;6288622;22;44635;-89
2022/05/30 04:17:51;;;;;;;;;6.00;6.00;;;;;9.78;100.00;100916.75;6285558;22;44801;-88
2022/05/30 04:20:17;;;;;;;;;7.25;7.25;;;;;9.84;100.00;100923.47;6286185;22;45136;-90
2022/05/30 04:22:45;;;;;;;;;10.00;10.00;;;;;9.87;100.00;100907.38;6265008;22;45223;-90
2022/05/30 04:25:13;;;;;;;;;10.25;7.75;;;;;9.99;100.00;100918.09;6295253;22;44597;-89
2022/05/30 04:27:40;;;;;;;;;10.00;4.25;;;;;10.11;100.00;100907.69;6297635;22;44737;-89
2022/05/30 04:30:08;;;;;;;;;6.25;6.25;;;;;10.13;100.00;100911.06;6292785;22;44947;-89
2022/05/30 04:32:35;;;;;;;;;13.00;9.50;;;;;10.22;100.00;100915.81;6260485;22;44572;-89
2022/05/30 04:35:11;;;;;;;;;10.50;10.00;;;;;10.31;100.00;100919.72;6293172;22;45154;-87
2022/05/30 04:37:39;;;;;;;;;10.75;8.00;;;;;10.35;100.00;100914.13;6290487;22;45185;-90
2022/05/30 04:40:16;;;;;;;;;9.50;9.00;;;;;10.46;100.00;100924.06;6291850;22;45333;-90
2022/05/30 04:42:42;;;;;;;;;9.00;8.75;;;;;10.60;100.00;100915.22;6269512;22;44650;-90
2022/05/30 04:45:08;;;;;;;;;11.25;8.50;;;;;10.67;100.00;100922.69;6245565;22;44592;-88
2022/05/30 04:47:36;;;;;;;;;12.25;10.25;;;;;10.74;100.00;100913.38;6269125;22;46151;-89
2022/05/30 04:50:08;;;;;;;;;6.00;2.50;;;;;10.79;100.00;100915.75;6294952;22;45061;-89
2022/05/30 04:52:35;;;;;;;;;11.50;10.25;;;;;10.95;100.00;100920.91;6299024;22;44550;-88
2022/05/30 04:55:04;;;;;;;;;12.00;8.00;;;;;11.01;100.00;100918.69;6298394;22;44800;-89
2022/05/30 04:57:29;;;;;;;;;15.25;9.25;;;;;11.06;100.00;100923.69;6301505;22;44837;-88
2022/05/30 04:59:58;;;;;;;;;11.50;9.00;;;;;11.16;100.00;100914.16;6303388;22;45186;-88
2022/05/30 05:02:23;;;;;;;;;11.60;10.20;;;;;11.15;100.00;100909.78;6274027;22;44871;-89
2022/05/30 05:04:49;;;;;;;;;12.75;10.25;;;;;11.19;100.00;100916.63;6300340;22;44780;-89
2022/05/30 05:07:16;;;;;;;;;8.75;8.75;;;;;11.24;100.00;100921.63;6293708;22;44749;-89
2022/05/30 05:10:26;;;;;;;;;9.00;8.00;;;;;11.23;100.00;100917.28;6233813;22;45039;-88
2022/05/30 05:12:51;;;;;;;;;13.75;11.00;;;;;11.31;100.00;100923.78;6158932;23;44755;-88
2022/05/30 05:15:17;;;;;;;;;9.00;7.00;;;;;11.36;100.00;100926.13;6159997;23;44842;-90
2022/05/30 05:17:42;;;;;;;;;11.75;9.75;;;;;11.49;100.00;100927.00;6146098;23;44878;-90
2022/05/30 05:20:11;;;;;;;;;7.75;6.50;;;;;11.59;100.00;100930.75;6147444;23;45189;-90
2022/05/30 05:22:36;;;;;;;;;10.00;10.00;;;;;11.66;100.00;100938.31;6166165;23;44641;-89
2022/05/30 05:25:02;;;;;;;;;17.25;12.75;;;;;11.76;100.00;100928.75;6145756;23;45228;-89
2022/05/30 05:27:27;;;;;;;;;10.00;9.75;;;;;11.91;100.00;100935.72;6146867;23;44863;-89
2022/05/30 05:29:54;;;;;;;;;10.00;8.75;;;;;11.82;100.00;100928.34;6170050;23;45427;-90
2022/05/30 05:32:20;;;;;;;;;11.60;8.60;;;;;11.83;100.00;100927.38;6117775;23;44682;-90
2022/05/30 05:34:50;;;;;;;;;9.25;9.00;;;;;11.99;100.00;100924.50;6140145;23;44790;-89
2022/05/30 05:37:16;;;;;;;;;8.50;8.50;;;;;12.20;100.00;100933.66;6139583;23;44763;-91
2022/05/30 05:39:42;;;;;;;;;11.75;10.25;;;;;12.20;100.00;100925.69;6165369;23;45065;-89
2022/05/30 05:42:08;;;;;;;;;8.75;8.00;;;;;12.25;100.00;100934.19;6167619;23;44643;-90
2022/05/30 05:44:33;;;;;;;;;10.75;8.00;;;;;12.24;100.00;100934.31;6168971;23;44768;-88
2022/05/30 05:46:59;;;;;;;;;15.75;13.25;;;;;12.47;100.00;100927.31;6151942;23;44827;-89
2022/05/30 05:49:24;;;;;;;;;8.50;8.50;;;;;12.56;100.00;100937.31;6229847;22;45109;-89
2022/05/30 05:51:57;;;;;;;;;7.75;7.75;;;;;12.61;100.00;100936.03;6260585;22;44657;-90
2022/05/30 05:54:23;;;;;;;;;13.00;10.00;;;;;12.71;100.00;100932.69;6267117;22;44655;-89
2022/05/30 05:56:54;;;;;;;;;12.00;10.50;;;;;12.79;100.00;100941.00;6266803;22;44821;-90
2022/05/30 05:59:20;;;;;;;;;7.60;5.40;;;;;12.90;100.00;100940.19;6267876;22;45278;-89
2022/05/30 06:01:45;;;;;;;;;1.75;1.75;;;;;13.11;100.00;100944.81;6266428;22;44618;-90
2022/05/30 06:04:11;;;;;;;;;11.60;8.80;;;;;13.34;100.00;100944.94;6292191;22;44650;-89
2022/05/30 06:06:38;;;;;;;;;8.50;3.50;;;;;13.43;100.00;100938.91;6267771;22;44781;-89
2022/05/30 06:09:04;;;;;;;;;10.25;7.50;;;;;13.65;100.00;100948.81;6240179;22;45285;-89
2022/05/30 06:11:35;;;;;;;;;9.60;6.20;;;;;13.94;100.00;100940.38;6291541;22;44643;-89
2022/05/30 06:14:01;;;;;;;;;10.60;8.00;;;;;14.06;100.00;100947.41;6267565;22;44547;-90
2022/05/30 06:16:29;;;;;;;;;6.25;6.25;;;;;14.01;100.00;100947.78;6241612;22;45183;-89
2022/05/30 06:18:59;;;;;;;;;6.00;6.00;;;;;14.11;100.00;100937.22;6269639;22;46648;-90
2022/05/30 06:21:28;;;;;;;;;7.00;6.00;;;;;14.18;100.00;100940.28;6297367;22;44579;-89
2022/05/30 06:23:55;;;;;;;;;4.40;3.60;;;;;14.12;100.00;100942.47;6298176;22;44687;-90
2022/05/30 06:26:24;;;;;;;;;7.50;4.50;;;;;14.26;100.00;100948.50;6269257;22;44990;-88
2022/05/30 06:28:50;;;;;;;;;9.25;8.25;;;;;14.31;100.00;100949.88;6273502;22;46674;-90
2022/05/30 06:31:20;;;;;;;;;9.20;5.00;;;;;14.32;100.00;100937.38;6299527;22;44555;-90
2022/05/30 06:33:47;;;;;;;;;8.80;6.00;;;;;14.28;100.00;100952.78;6273139;22;44684;-89
2022/05/30 06:36:16;;;;;;;;;5.25;5.25;;;;;14.33;100.00;100939.06;6301416;22;44833;-89
2022/05/30 06:38:43;;;;;;;;;8.00;6.50;;;;;14.40;100.00;100943.78;6274489;22;46074;-89
2022/05/30 06:41:17;;;;;;;;;9.80;6.60;;;;;14.27;100.00;100951.09;6273986;22;44705;-91
2022/05/30 06:43:44;;;;;;;;;3.00;3.00;;;;;14.26;100.00;100951.19;6287399;22;45168;-90
2022/05/30 06:46:11;;;;;;;;;2.60;2.60;;;;;14.40;100.00;100951.78;6265157;22;44957;-88
2022/05/30 06:48:37;;;;;;;;;6.80;5.60;;;;;14.37;100.00;100957.41;6296506;22;45044;-89
2022/05/30 06:51:08;;;;;;;;;8.50;8.50;;;;;14.38;100.00;100951.06;6273599;22;44587;-88
2022/05/30 06:53:34;;;;;;;;;7.40;5.80;;;;;14.50;100.00;100956.44;6274503;22;44710;-89
2022/05/30 06:56:00;;;;;;;;;3.00;3.00;;;;;14.62;100.00;100959.00;6273145;22;44853;-89
2022/05/30 06:58:25;;;;;;;;;6.50;5.50;;;;;14.63;100.00;100952.66;6299680;22;45101;-87
2022/05/30 07:00:52;;;;;;;;;2.75;2.75;;;;;14.74;100.00;100946.44;6271864;22;44665;-88
2022/05/30 07:03:18;;;;;;;;;6.60;6.20;;;;;14.98;100.00;100940.91;6299536;22;44618;-90
2022/05/30 07:05:45;;;;;;;;;5.00;5.00;;;;;15.17;100.00;100933.06;6273741;22;44840;-89
2022/05/30 07:08:12;;;;;;;;;5.20;5.20;;;;;15.39;100.00;100936.66;6274810;22;45077;-88
2022/05/30 07:10:39;;;;;;;;;5.40;4.40;;;;;15.52;100.00;100934.66;6272617;22;44799;-89
2022/05/30 07:13:06;;;;;;;;;4.00;3.20;;;;;15.62;100.00;100940.06;6271413;22;44674;-90
2022/05/30 07:15:37;;;;;;;;;6.20;4.00;;;;;15.78;100.00;100956.56;6271753;22;44913;-88
2022/05/30 07:18:14;;;;;;;;;4.20;3.60;;;;;15.52;100.00;100955.19;6299073;22;45320;-90
2022/05/30 07:20:40;;;;;;;;;5.00;5.00;;;;;15.49;100.00;100952.78;6294415;22;44698;-90
2022/05/30 07:23:06;;;;;;;;;5.75;3.00;;;;;15.63;100.00;100952.47;6240662;22;44638;-89
2022/05/30 07:25:35;;;;;;;;;3.00;3.00;;;;;15.88;100.00;100948.56;6292426;22;44889;-88
2022/05/30 07:28:03;;;;;;;;;6.40;3.00;;;;;16.01;100.00;100948.38;6265149;22;45353;-90
2022/05/30 07:30:30;;;;;;;;;4.60;3.60;;;;;16.03;100.00;100949.94;6294507;22;44654;-89
2022/05/30 07:32:56;;;;;;;;;3.00;3.00;;;;;16.18;100.00;100945.06;6296328;22;44669;-89
2022/05/30 07:35:23;;;;;;;;;3.60;3.60;;;;;16.14;100.00;100947.16;6304412;22;44786;-88
2022/05/30 07:37:50;;;;;;;;;3.00;3.00;;;;;16.04;100.00;100940.91;6302053;22;45111;-89
2022/05/30 07:40:16;;;;;;;;;2.00;1.60;;;;;15.91;100.00;100938.44;6304867;22;44697;-90
2022/05/30 07:42:42;;;;;;;;;5.20;4.00;;;;;15.83;100.00;100934.72;6303456;22;44738;-90
2022/05/30 07:45:09;;;;;;;;;3.00;3.00;;;;;15.82;100.00;100952.63;6276679;22;44808;-90
2022/05/30 07:47:35;;;;;;;;;6.20;4.00;;;;;16.05;100.00;100937.25;6273761;22;45081;-89
2022/05/30 07:50:04;;;;;;;;;5.60;5.60;;;;;15.96;100.00;100942.56;6301209;22;44701;-89
2022/05/30 07:52:31;;;;;;;;;8.00;6.20;;;;;15.75;100.00;100946.09;6300081;22;44635;-89
2022/05/30 07:54:59;;;;;;;;;4.80;3.80;;;;;15.63;100.00;100942.63;6302400;22;44874;-89
2022/05/30 08:00:12;;;;;;;;;2.80;2.80;;;;;16.03;100.00;100933.00;6286555;22;44701;-90
2022/05/30 08:02:41;;;;;;;;;5.20;3.80;;;;;15.60;98.73;100950.88;6258945;22;44571;-89
2022/05/30 08:05:09;;;;;;;;;4.00;2.75;;;;;15.38;100.00;100951.88;6265774;22;44912;-90
2022/05/30 08:07:36;;;;;;;;;4.20;3.20;;;;;15.22;100.00;100962.13;6289353;22;45269;-91
2022/05/30 08:10:02;;;;;;;;;6.00;4.80;;;;;15.06;100.00;100951.00;6283165;22;44722;-90
2022/05/30 08:12:28;;;;;;;;;4.40;2.60;;;;;15.05;100.00;100952.84;6289473;22;44589;-91
2022/05/30 08:14:53;;;;;;;;;6.50;4.50;;;;;15.18;100.00;100949.97;6293696;22;44650;-90
2022/05/30 08:17:20;;;;;;;;;1.75;1.25;;;;;15.31;100.00;100941.78;6291675;22;45509;-90
2022/05/30 08:19:46;;;;;;;;;2.20;2.20;;;;;15.46;99.26;100945.84;6297585;22;44551;-90
2022/05/30 08:22:12;;;;;;;;;4.20;3.60;;;;;15.58;100.00;100949.34;6298231;22;44757;-90
2022/05/30 08:24:44;;;;;;;;;4.75;4.00;;;;;15.80;98.51;100935.81;6267973;22;44945;-90
2022/05/30 08:27:10;;;;;;;;;2.60;2.60;;;;;15.99;96.64;100932.41;6297225;22;45502;-89
2022/05/30 08:29:37;;;;;;;;;2.60;2.60;;;;;16.12;96.26;100932.22;6268114;22;44589;-91
2022/05/30 08:32:07;;;;;;;;;5.80;3.20;;;;;16.30;97.11;100929.75;6268120;22;45277;-90
2022/05/30 08:34:37;;;;;;;;;3.00;3.00;;;;;16.28;93.31;100934.38;6242100;22;44858;-88
2022/05/30 08:37:03;;;;;;;;;3.80;2.60;;;;;16.39;91.17;100926.25;6293941;22;45234;-90
2022/05/30 08:42:13;;;;;;;;;2.40;2.40;;;;;16.72;89.84;100933.16;6292556;22;44730;-90
2022/05/30 08:44:40;;;;;;;;;4.00;2.75;;;;;16.68;92.37;100929.88;6288680;22;44844;-91
2022/05/30 08:47:15;;;;;;;;;6.80;6.80;;;;;16.44;93.89;100935.59;6286997;22;44979;-90
2022/05/30 08:49:50;;;;;;;;;2.80;2.80;;;;;16.30;91.03;100927.91;6262952;22;44745;-89
2022/05/30 08:52:44;;;;;;;;;2.20;2.20;;;;;16.13;87.39;100936.59;6262674;22;44718;-90
2022/05/30 08:55:12;;;;;;;;;2.00;2.00;;;;;15.74;86.04;100935.50;6284765;22;44616;-89
2022/05/30 08:58:02;;;;;;;;;4.40;4.40;;;;;15.63;93.04;100928.38;6281458;22;45311;-88
2022/05/30 09:00:33;;;;;;;;;1.80;1.40;;;;;15.38;94.19;100933.13;6280489;22;44732;-87
2022/05/30 09:03:22;;;;;;;;;3.20;2.20;;;;;15.53;90.85;100930.97;6280381;22;44650;-90
2022/05/30 09:05:53;;;;;;;;;4.00;3.00;;;;;15.58;89.11;100930.59;6290005;22;44786;-89
2022/05/30 09:08:26;;;;;;;;;2.60;1.00;;;;;15.72;89.11;100929.44;6291065;22;45074;-90
2022/05/30 09:11:15;;;;;;;;;2.80;2.00;;;;;16.08;89.51;100942.34;6238572;22;44543;-90
2022/05/30 09:13:47;;;;;;;;;4.80;4.20;;;;;16.11;90.15;100935.88;6259743;22;44779;-90
2022/05/30 09:16:37;;;;;;;;;2.50;2.00;;;;;16.22;88.06;100927.75;6261553;22;44811;-89
2022/05/30 09:19:07;;;;;;;;;3.20;2.00;;;;;16.32;88.30;100927.78;6258264;22;47197;-92
2022/05/30 09:21:33;;;;;;;;;7.00;5.20;;;;;16.35;87.31;100924.84;6254582;22;44579;-89
2022/05/30 09:24:02;;;;;;;;;3.00;3.00;;;;;16.42;88.80;100916.09;6261310;22;44616;-89
2022/05/30 09:26:42;;;;;;;;;2.40;2.40;;;;;16.42;84.48;100925.97;6286379;22;44884;-90
2022/05/30 09:29:21;;;;;;;;;11.25;9.25;;;;;16.53;85.17;100920.50;6286880;22;45230;-91
2022/05/30 09:32:01;;;;;;;;;6.00;4.20;;;;;16.39;83.94;100932.47;6285105;22;44734;-90
2022/05/30 09:34:53;;;;;;;;;5.20;4.40;;;;;16.29;88.33;100928.03;6288863;22;44732;-91
2022/05/30 09:37:38;;;;;;;;;5.50;5.50;;;;;16.52;90.38;100907.25;6163846;23;45186;-89
2022/05/30 09:40:04;;;;;;;;;2.20;2.20;;;;;16.56;86.82;100904.16;6162362;23;45051;-90
2022/05/30 09:42:48;;;;;;;;;2.00;2.00;;;;;16.72;85.38;100897.44;6159702;23;44698;-90
2022/05/30 09:45:25;;;;;;;;;2.20;2.20;;;;;16.96;85.17;100905.94;6158248;23;44732;-90
2022/05/30 09:48:21;;;;;;;;;1.20;1.20;;;;;17.19;79.41;100896.63;6130520;23;44813;-89
2022/05/30 09:50:49;;;;;;;;;4.00;2.00;;;;;17.35;77.88;100897.88;6154581;23;45321;-91
2022/05/30 09:53:45;;;;;;;;;2.00;2.00;;;;;17.47;74.72;100897.59;6161867;23;44596;-91
2022/05/30 09:56:16;;;;;;;;;3.00;3.00;;;;;17.51;72.45;100903.53;6107959;23;45255;-90
2022/05/30 09:59:00;;;;;;;;;3.60;3.00;;;;;17.32;70.02;100895.50;6158383;23;44868;-89
2022/05/30 10:01:30;;;;;;;;;3.80;3.80;;;;;17.52;72.73;100901.69;6138124;23;46655;-90
2022/05/30 10:04:38;;;;;;;;;4.20;3.60;;;;;17.31;73.39;100894.66;6140468;23;44683;-90
2022/05/30 10:07:18;;;;;;;;;1.00;1.00;;;;;17.24;70.87;100896.19;6162151;23;44969;-90
2022/05/30 10:10:10;;;;;;;;;2.80;2.80;;;;;17.31;74.39;100899.16;6167374;23;44839;-90
2022/05/30 10:12:44;;;;;;;;;6.00;6.00;;;;;17.23;72.84;100889.16;6168648;23;45314;-88
2022/05/30 10:28:36;;;;;;;;;1.40;1.40;;;;;17.32;67.35;100890.13;6292549;22;44760;-89
2022/05/30 10:31:33;;;;;;;;;1.80;1.00;;;;;17.55;66.99;100902.28;6266533;22;44618;-87
2022/05/30 10:34:18;;;;;;;;;4.00;2.50;;;;;17.68;65.44;100888.50;6283680;22;45588;-88
2022/05/30 10:37:08;;;;;;;;;1.00;1.00;;;;;17.92;66.56;100890.75;6278643;22;45325;-87
2022/05/30 10:39:42;;;;;;;;;1.80;1.80;;;;;17.98;59.98;100892.84;6281994;22;44870;-86
2022/05/30 10:42:16;;;;;;;;;1.80;1.80;;;;;18.29;60.76;100887.22;6296109;22;44588;-85
2022/05/30 10:44:49;;;;;;;;;2.60;2.20;;;;;18.50;60.17;100893.16;6267538;22;44798;-87
2022/05/30 10:47:39;;;;;;;;;3.00;3.00;;;;;18.70;59.45;100897.47;6287766;22;44945;-86
2022/05/30 10:50:16;;;;;;;;;1.20;1.20;;;;;19.05;56.52;100892.25;6293962;22;44598;-87
2022/05/30 10:52:53;;;;;;;;;1.00;1.00;;;;;19.22;59.43;100894.13;6264251;22;44653;-87
2022/05/30 10:55:29;;;;;;;;;1.20;1.20;;;;;19.26;53.34;100896.34;6286806;22;44724;-86
2022/05/30 10:58:06;;;;;;;;;4.00;2.20;;;;;19.33;50.66;100910.03;6283839;22;45337;-87
2022/05/30 11:00:43;;;;;;;;;3.20;3.20;;;;;18.85;55.62;100899.63;6277144;22;45297;-85
2022/05/30 11:03:29;;;;;;;;;1.20;1.00;;;;;18.54;57.95;100894.56;6276163;22;44686;-88
2022/05/30 11:06:09;;;;;;;;;4.40;3.00;;;;;18.42;57.80;100907.38;6277339;22;45226;-88
2022/05/30 11:08:56;;;;;;;;;1.60;1.60;;;;;18.17;57.82;100914.28;6276013;22;46778;-88
2022/05/30 11:11:48;;;;;;;;;2.00;2.00;;;;;18.02;60.62;100898.78;6281544;22;45299;-87
2022/05/30 11:14:50;;;;;;;;;3.80;2.00;;;;;17.57;61.19;100899.44;6288059;22;45143;-85
2022/05/30 11:17:23;;;;;;;;;1.20;1.20;;;;;17.79;61.02;100898.25;6279845;22;44698;-85
2022/05/30 11:20:07;;;;;;;;;2.20;2.20;;;;;18.20;59.06;100897.00;6253522;22;45392;-86
2022/05/30 11:22:36;;;;;;;;;0.00;0.00;;;;;17.85;57.85;100903.94;6289869;22;44751;-85
2022/05/30 11:25:02;;;;;;;;;2.00;2.00;;;;;17.65;59.43;100895.03;6257525;22;45133;-85
2022/05/30 11:27:40;;;;;;;;;1.00;1.00;;;;;17.54;60.02;100894.34;6254684;22;45454;-85
2022/05/30 11:30:08;;;;;;;;;2.00;2.00;;;;;17.37;60.93;100890.56;6279640;22;46685;-86
2022/05/30 11:33:00;;;;;;;;;2.60;2.60;;;;;17.48;60.19;100885.00;6251187;22;45256;-85
2022/05/30 11:35:33;;;;;;;;;2.80;2.80;;;;;17.84;58.28;100879.88;6276145;22;44728;-87
2022/05/30 11:38:23;;;;;;;;;1.20;1.20;;;;;18.20;58.02;100880.88;6255828;22;44766;-86
2022/05/30 11:41:08;;;;;;;;;3.80;2.00;;;;;18.37;54.43;100882.78;6281756;22;45177;-87
2022/05/30 11:43:58;;;;;;;;;2.80;2.80;;;;;18.61;53.03;100876.81;6288327;22;44690;-87
2022/05/30 11:46:41;;;;;;;;;2.20;2.20;;;;;18.91;56.41;100878.34;6282316;22;45376;-86
2022/05/30 11:49:21;;;;;;;;;3.60;3.60;;;;;18.68;52.09;100883.31;6280746;22;44725;-86
2022/05/30 11:52:10;;;;;;;;;5.20;4.20;;;;;18.53;51.50;100881.28;6280234;22;45000;-86
2022/05/30 11:55:01;;;;;;;;;2.00;2.00;;;;;18.40;53.36;100884.31;6284702;22;45184;-85
2022/05/30 11:57:35;;;;;;;;;3.00;3.00;;;;;18.96;53.94;100883.28;6286649;22;45206;-86
2022/05/30 12:00:11;;;;;;;;;2.80;2.80;;;;;19.61;53.02;100878.47;6262294;22;44928;-85
2022/05/30 12:02:51;;;;;;;;;1.80;1.80;;;;;19.68;47.82;100878.69;6288627;22;45022;-86
2022/05/30 12:05:36;;;;;;;;;2.00;1.40;;;;;19.74;47.00;100880.75;6280265;22;45316;-86